Time;durP1;ratioP1;P1;durP2;ratioP2;P2;SDS_P1;SDS_P2;PMS_P1;PMS_P2;Temp;Humidity;BMP_temperature;BMP_pressure;BME280_temperature;BME280_humidity;BME280_pressure;Samples;Min_cycle;Max_cycle;Signal;HPM_P1;HPM_P2
2023/09/29 00:01:33;;;;;;;8.55;2.92;;;15.90;99.90;;;;;;5057008;28;20093;-93
2023/09/29 00:04:00;;;;;;;12.60;2.70;;;15.90;99.90;;;;;;5059432;28;20041;-89
2023/09/29 00:06:26;;;;;;;10.43;3.03;;;15.90;99.90;;;;;;5058715;28;20051;-88
2023/09/29 00:08:52;;;;;;;11.45;3.03;;;15.90;99.90;;;;;;5033139;28;20036;-89
2023/09/29 00:11:17;;;;;;;7.72;2.83;;;15.90;99.90;;;;;;5041963;28;20075;-90
2023/09/29 00:13:43;;;;;;;7.50;3.80;;;15.90;99.90;;;;;;5052160;28;20127;-87
2023/09/29 00:16:09;;;;;;;7.82;2.80;;;15.90;99.90;;;;;;5100491;28;20044;-88
2023/09/29 00:18:37;;;;;;;14.65;3.67;;;16.00;99.90;;;;;;5057689;28;20087;-88
2023/09/29 00:21:02;;;;;;;12.27;3.38;;;15.90;99.90;;;;;;5050936;28;20044;-91
2023/09/29 00:23:28;;;;;;;10.95;3.40;;;16.00;99.90;;;;;;5068357;28;20047;-88
2023/09/29 00:25:55;;;;;;;9.00;2.95;;;16.00;99.90;;;;;;5043905;28;20036;-89
2023/09/29 00:28:21;;;;;;;15.02;3.38;;;15.90;99.90;;;;;;5044611;28;20040;-87
2023/09/29 00:30:47;;;;;;;9.40;2.88;;;16.00;99.90;;;;;;5058110;28;20043;-89
2023/09/29 00:33:13;;;;;;;11.85;3.20;;;15.90;99.90;;;;;;5059950;28;20048;-88
2023/09/29 00:35:39;;;;;;;11.30;2.65;;;15.90;99.90;;;;;;5051536;28;20036;-88
2023/09/29 00:38:05;;;;;;;9.25;3.20;;;15.90;99.90;;;;;;5060379;28;20398;-88
2023/09/29 00:40:32;;;;;;;7.88;3.30;;;15.90;99.90;;;;;;5078236;28;20820;-88
2023/09/29 00:42:59;;;;;;;9.30;3.50;;;15.90;99.90;;;;;;5049381;28;20055;-89
2023/09/29 00:45:28;;;;;;;11.23;3.00;;;15.90;99.90;;;;;;5049253;28;20074;-89
2023/09/29 00:47:57;;;;;;;9.10;3.15;;;15.90;99.90;;;;;;5060061;28;20063;-92
2023/09/29 00:50:28;;;;;;;10.98;2.70;;;15.90;99.90;;;;;;5042522;28;20041;-90
2023/09/29 00:52:59;;;;;;;8.55;2.83;;;15.90;99.90;;;;;;5041625;28;20403;-91
2023/09/29 00:55:29;;;;;;;12.38;3.20;;;16.00;99.90;;;;;;5059554;28;20051;-90
2023/09/29 00:57:58;;;;;;;12.45;3.20;;;15.90;99.90;;;;;;5043308;28;20048;-92
2023/09/29 01:00:31;;;;;;;9.40;2.75;;;16.00;99.90;;;;;;5060660;28;20044;-90
2023/09/29 01:02:57;;;;;;;8.57;2.80;;;15.90;99.90;;;;;;5056430;28;20115;-90
2023/09/29 01:05:23;;;;;;;11.20;3.03;;;15.90;99.90;;;;;;5051872;28;20068;-89
2023/09/29 01:07:51;;;;;;;9.45;2.88;;;15.90;99.90;;;;;;5061998;28;20044;-89
2023/09/29 01:10:17;;;;;;;10.07;3.08;;;15.90;99.90;;;;;;5058689;28;20032;-90
2023/09/29 01:12:44;;;;;;;11.25;3.05;;;15.90;99.90;;;;;;5059788;28;20040;-87
2023/09/29 01:15:15;;;;;;;9.65;2.65;;;15.90;99.90;;;;;;5061244;28;20097;-90
2023/09/29 01:17:44;;;;;;;11.95;2.97;;;15.90;99.90;;;;;;5048057;28;20426;-91
2023/09/29 01:20:29;;;;;;;11.85;2.90;;;15.90;99.90;;;;;;5040583;28;20045;-91
2023/09/29 01:22:56;;;;;;;8.85;3.08;;;15.90;99.90;;;;;;5081334;28;20044;-90
2023/09/29 01:25:22;;;;;;;11.50;3.65;;;15.90;99.90;;;;;;5044295;28;20403;-90
2023/09/29 01:27:49;;;;;;;9.33;3.17;;;15.90;99.90;;;;;;5056934;28;20044;-93
2023/09/29 01:30:18;;;;;;;9.98;3.00;;;15.90;99.90;;;;;;5041935;28;20098;-90
2023/09/29 01:32:47;;;;;;;11.60;3.50;;;15.80;99.90;;;;;;5047048;28;20530;-91
2023/09/29 01:35:31;;;;;;;9.07;2.90;;;15.80;99.90;;;;;;5060318;28;20498;-91
2023/09/29 01:38:00;;;;;;;8.98;3.45;;;15.90;99.90;;;;;;5066132;28;20043;-89
2023/09/29 01:40:27;;;;;;;9.82;3.15;;;15.80;99.90;;;;;;5096735;28;20075;-90
2023/09/29 01:42:56;;;;;;;11.65;3.05;;;15.80;99.90;;;;;;5064794;28;20123;-90
2023/09/29 01:45:23;;;;;;;9.80;3.40;;;15.80;99.90;;;;;;5052335;28;20074;-89
2023/09/29 01:47:50;;;;;;;7.65;2.95;;;15.80;99.90;;;;;;5065729;28;20029;-88
2023/09/29 01:50:18;;;;;;;10.57;3.00;;;15.80;99.90;;;;;;5089186;28;20036;-89
2023/09/29 01:52:45;;;;;;;9.60;3.03;;;15.90;99.90;;;;;;5070743;28;20462;-91
2023/09/29 01:55:15;;;;;;;10.85;2.58;;;15.80;99.90;;;;;;5059565;28;20048;-90
2023/09/29 01:57:43;;;;;;;7.38;3.00;;;15.80;99.90;;;;;;5077893;28;20710;-89
2023/09/29 02:00:19;;;;;;;9.10;2.92;;;15.80;99.90;;;;;;5076964;28;20447;-90
2023/09/29 02:02:48;;;;;;;13.40;3.50;;;15.90;99.90;;;;;;5043111;28;20048;-88
2023/09/29 02:05:18;;;;;;;9.02;3.10;;;15.80;99.90;;;;;;5039988;28;20069;-88
2023/09/29 02:07:45;;;;;;;10.18;3.20;;;15.80;99.90;;;;;;5070132;28;20119;-90
2023/09/29 02:10:11;;;;;;;9.98;2.97;;;15.80;99.90;;;;;;5056590;28;20035;-90
2023/09/29 02:12:53;;;;;;;8.03;3.10;;;15.80;99.90;;;;;;5076465;28;20040;-91
2023/09/29 02:15:19;;;;;;;10.43;3.10;;;15.80;99.90;;;;;;5059018;28;20028;-89
2023/09/29 02:17:47;;;;;;;10.67;2.93;;;15.80;99.90;;;;;;5035927;28;21344;-90
2023/09/29 02:20:15;;;;;;;7.22;2.72;;;15.80;99.90;;;;;;5046691;28;20536;-91
2023/09/29 02:22:42;;;;;;;7.97;3.13;;;15.80;99.90;;;;;;5057721;28;20067;-90
2023/09/29 02:25:10;;;;;;;11.13;2.88;;;15.80;99.90;;;;;;5054635;28;20051;-91
2023/09/29 02:27:36;;;;;;;8.77;2.97;;;15.80;99.90;;;;;;5052883;28;20036;-90
2023/09/29 02:30:03;;;;;;;9.23;3.05;;;15.80;99.90;;;;;;5038718;28;20090;-89
2023/09/29 02:32:29;;;;;;;8.48;2.72;;;15.80;99.90;;;;;;5041124;28;20364;-89
2023/09/29 02:34:55;;;;;;;11.48;3.40;;;15.80;99.90;;;;;;5083984;28;20577;-91
2023/09/29 02:37:21;;;;;;;8.00;3.03;;;15.90;99.90;;;;;;5054106;28;20032;-86
2023/09/29 02:39:47;;;;;;;10.43;3.45;;;15.80;99.90;;;;;;5049533;28;20055;-90
2023/09/29 02:42:13;;;;;;;9.20;3.08;;;15.80;99.90;;;;;;5073059;28;20088;-90
2023/09/29 02:44:39;;;;;;;9.30;3.00;;;15.80;99.90;;;;;;5052639;28;20044;-92
2023/09/29 02:47:06;;;;;;;7.60;2.92;;;15.90;99.90;;;;;;5094299;28;20182;-90
2023/09/29 02:49:33;;;;;;;8.35;3.15;;;15.80;99.90;;;;;;5042659;28;20083;-88
2023/09/29 02:52:03;;;;;;;6.55;2.72;;;15.80;99.90;;;;;;5073240;28;20486;-90
2023/09/29 02:54:30;;;;;;;8.95;3.03;;;15.90;99.90;;;;;;5065550;28;20479;-90
2023/09/29 02:56:56;;;;;;;9.38;3.15;;;15.80;99.90;;;;;;5033378;28;20051;-88
2023/09/29 02:59:24;;;;;;;8.82;2.80;;;15.90;99.90;;;;;;5034036;28;20033;-90
2023/09/29 03:01:50;;;;;;;8.55;2.70;;;15.80;99.90;;;;;;5037758;28;20044;-91
2023/09/29 03:04:16;;;;;;;9.68;2.65;;;15.80;99.90;;;;;;5021857;28;20041;-89
2023/09/29 03:06:42;;;;;;;7.47;2.67;;;15.80;99.90;;;;;;5039729;28;20032;-91
2023/09/29 03:09:10;;;;;;;7.95;3.00;;;15.80;99.90;;;;;;5025685;28;20411;-91
2023/09/29 03:11:43;;;;;;;10.10;2.67;;;15.80;99.90;;;;;;5034892;28;20044;-91
2023/09/29 03:14:09;;;;;;;9.07;3.00;;;15.80;99.90;;;;;;5052968;28;20067;-89
2023/09/29 03:16:36;;;;;;;11.95;3.00;;;15.80;99.90;;;;;;5053184;28;20048;-92
2023/09/29 03:19:02;;;;;;;10.50;2.80;;;15.80;99.90;;;;;;5042998;28;20091;-91
2023/09/29 03:21:28;;;;;;;8.38;2.50;;;15.90;99.90;;;;;;5022270;28;20075;-90
2023/09/29 03:23:54;;;;;;;9.77;2.70;;;15.80;99.90;;;;;;5077926;28;20111;-92
2023/09/29 03:26:22;;;;;;;6.93;2.63;;;15.80;99.90;;;;;;5022179;28;20144;-91
2023/09/29 03:28:52;;;;;;;10.00;2.60;;;15.80;99.90;;;;;;5038193;28;20483;-91
2023/09/29 03:31:22;;;;;;;8.30;2.80;;;15.80;99.90;;;;;;5037331;28;20116;-90
2023/09/29 03:33:48;;;;;;;11.80;3.40;;;15.80;99.90;;;;;;5038378;28;20079;-92
2023/09/29 03:36:14;;;;;;;9.18;2.83;;;15.80;99.90;;;;;;5037784;28;20177;-91
2023/09/29 03:38:45;;;;;;;8.52;2.60;;;15.80;99.90;;;;;;5021803;28;20492;-92
2023/09/29 03:41:10;;;;;;;8.50;3.15;;;15.70;99.90;;;;;;5038220;28;20049;-89
2023/09/29 03:43:37;;;;;;;7.20;2.72;;;15.70;99.90;;;;;;5019217;28;20047;-92
2023/09/29 03:46:04;;;;;;;9.52;2.75;;;15.70;99.90;;;;;;5004837;28;20118;-92
2023/09/29 03:48:30;;;;;;;;;;;15.70;99.90;;;;;;5020366;28;20029;-90
2023/09/29 03:50:57;;;;;;;8.40;2.67;;;15.70;99.90;;;;;;5070884;28;19966;-90
2023/09/29 03:53:24;;;;;;;11.05;3.35;;;15.70;99.90;;;;;;5020963;28;20041;-91
2023/09/29 03:55:52;;;;;;;9.10;2.67;;;15.70;99.90;;;;;;5045766;28;20059;-90
2023/09/29 03:58:19;;;;;;;7.03;2.88;;;15.70;99.90;;;;;;5053451;28;20051;-90
2023/09/29 04:00:45;;;;;;;6.15;2.70;;;15.70;99.90;;;;;;5046773;28;20102;-90
2023/09/29 04:03:11;;;;;;;8.52;3.00;;;15.80;99.90;;;;;;5090133;28;20052;-90
2023/09/29 04:05:36;;;;;;;7.03;2.90;;;15.80;99.90;;;;;;5041367;28;20100;-91
2023/09/29 04:08:03;;;;;;;9.93;2.45;;;15.80;99.90;;;;;;5040841;28;20040;-88
2023/09/29 04:10:29;;;;;;;8.20;2.60;;;15.80;99.90;;;;;;5057310;28;20028;-87
2023/09/29 04:12:54;;;;;;;7.45;3.00;;;15.90;99.90;;;;;;5074253;28;20648;-89
2023/09/29 04:15:20;;;;;;;7.53;2.22;;;15.90;99.90;;;;;;5045550;28;20044;-92
2023/09/29 04:17:46;;;;;;;10.18;2.97;;;15.90;99.90;;;;;;5056617;28;20071;-91
2023/09/29 04:20:13;;;;;;;5.85;2.00;;;16.00;99.90;;;;;;5056854;28;20051;-87
2023/09/29 04:22:38;;;;;;;7.30;2.63;;;16.00;99.90;;;;;;5067184;28;20036;-89
2023/09/29 04:25:09;;;;;;;9.00;2.85;;;16.10;99.90;;;;;;5037851;28;20521;-92
2023/09/29 04:27:35;;;;;;;8.38;2.38;;;16.10;99.90;;;;;;5054912;28;20036;-89
2023/09/29 04:30:05;;;;;;;6.10;2.33;;;16.10;99.90;;;;;;5040769;28;20046;-89
2023/09/29 04:32:31;;;;;;;7.35;3.05;;;16.10;99.90;;;;;;5040680;28;20398;-90
2023/09/29 04:34:57;;;;;;;10.43;2.70;;;16.20;99.90;;;;;;5057315;28;20115;-88
2023/09/29 04:37:23;;;;;;;9.35;2.53;;;16.20;99.90;;;;;;5057148;28;20058;-91
2023/09/29 04:39:48;;;;;;;8.20;2.80;;;16.20;99.90;;;;;;5070829;28;20063;-87
2023/09/29 04:42:14;;;;;;;11.27;2.65;;;16.20;99.90;;;;;;5039340;28;20124;-91
2023/09/29 04:44:40;;;;;;;7.07;2.55;;;16.20;99.90;;;;;;5073973;28;20828;-89
2023/09/29 04:47:07;;;;;;;10.88;3.10;;;16.20;99.90;;;;;;5023002;28;20123;-89
2023/09/29 04:49:33;;;;;;;10.52;2.92;;;16.20;99.90;;;;;;5077322;28;20031;-91
2023/09/29 04:51:59;;;;;;;8.40;2.47;;;16.30;99.90;;;;;;5047980;28;20064;-90
2023/09/29 04:54:24;;;;;;;8.63;2.63;;;16.30;99.90;;;;;;5076770;28;20044;-88
2023/09/29 04:56:51;;;;;;;6.90;2.38;;;16.30;99.90;;;;;;5023057;28;20052;-88
2023/09/29 04:59:17;;;;;;;7.60;2.70;;;16.30;99.90;;;;;;5049306;28;20123;-88
2023/09/29 05:01:43;;;;;;;9.50;3.05;;;16.40;99.90;;;;;;5071425;28;20496;-89
2023/09/29 05:04:09;;;;;;;11.23;3.47;;;16.60;99.90;;;;;;5036782;28;20047;-88
2023/09/29 05:06:35;;;;;;;8.88;2.63;;;16.30;99.90;;;;;;5024520;28;20041;-91
2023/09/29 05:09:01;;;;;;;6.50;2.90;;;16.20;99.90;;;;;;5043642;28;20047;-92
2023/09/29 05:11:28;;;;;;;8.63;2.92;;;16.20;99.90;;;;;;5038832;28;20043;-88
2023/09/29 05:13:54;;;;;;;7.70;2.97;;;16.20;99.90;;;;;;5035064;28;20041;-92
2023/09/29 05:16:21;;;;;;;8.68;2.85;;;16.20;99.90;;;;;;5015342;28;20801;-89
2023/09/29 05:18:48;;;;;;;9.53;2.33;;;16.20;99.90;;;;;;5054723;28;20040;-89
2023/09/29 05:21:14;;;;;;;;;;;16.20;99.90;;;;;;5041784;28;20067;-91
2023/09/29 05:23:40;;;;;;;11.57;3.00;;;16.20;99.90;;;;;;5038493;28;19964;-89
2023/09/29 05:26:07;;;;;;;7.63;3.17;;;16.20;99.90;;;;;;5033239;28;20033;-87
2023/09/29 05:28:39;;;;;;;8.52;3.22;;;16.20;99.90;;;;;;5038643;28;20037;-89
2023/09/29 05:31:05;;;;;;;11.75;3.17;;;16.30;99.90;;;;;;5036830;28;20037;-87
2023/09/29 05:33:31;;;;;;;8.38;3.63;;;16.10;99.90;;;;;;5017267;28;20100;-88
2023/09/29 05:35:58;;;;;;;8.43;2.97;;;16.20;99.90;;;;;;5067212;28;20045;-86
2023/09/29 05:38:24;;;;;;;8.80;3.13;;;16.20;99.90;;;;;;5038412;28;20128;-89
2023/09/29 05:40:51;;;;;;;8.38;3.15;;;16.20;99.90;;;;;;5069893;28;20130;-88
2023/09/29 05:43:17;;;;;;;10.95;3.13;;;16.20;99.90;;;;;;5038553;28;20029;-84
2023/09/29 05:45:47;;;;;;;7.45;3.03;;;16.20;99.90;;;;;;5038817;28;20045;-87
2023/09/29 05:48:14;;;;;;;8.40;2.80;;;16.20;99.90;;;;;;5037296;28;20040;-88
2023/09/29 05:50:40;;;;;;;9.90;2.80;;;16.20;99.90;;;;;;5007943;28;20043;-88
2023/09/29 05:53:06;;;;;;;12.25;3.15;;;16.30;99.90;;;;;;5052884;28;20487;-89
2023/09/29 05:55:32;;;;;;;7.38;3.28;;;16.30;99.90;;;;;;5038961;28;20057;-90
2023/09/29 05:57:58;;;;;;;8.98;2.97;;;16.30;99.90;;;;;;5021846;28;20046;-88
2023/09/29 06:00:25;;;;;;;6.88;3.67;;;16.30;99.90;;;;;;5022398;28;20037;-89
2023/09/29 06:02:52;;;;;;;6.50;3.10;;;16.30;99.90;;;;;;5046020;28;20082;-89
2023/09/29 06:05:17;;;;;;;11.05;3.50;;;16.30;99.90;;;;;;5038694;28;20064;-88
2023/09/29 06:07:44;;;;;;;9.35;3.20;;;16.30;99.90;;;;;;5039412;28;20025;-87
2023/09/29 06:10:11;;;;;;;7.38;3.08;;;16.30;99.90;;;;;;5035261;28;20068;-88
2023/09/29 06:12:37;;;;;;;7.20;3.65;;;16.40;99.90;;;;;;5021493;28;20123;-87
2023/09/29 06:15:04;;;;;;;8.10;3.58;;;16.40;99.90;;;;;;5021764;28;20028;-88
2023/09/29 06:17:30;;;;;;;8.88;3.42;;;16.40;99.90;;;;;;5034562;28;20036;-88
2023/09/29 06:19:57;;;;;;;8.82;3.47;;;16.40;99.90;;;;;;5021559;28;20072;-88
2023/09/29 06:22:23;;;;;;;8.93;3.70;;;16.40;99.90;;;;;;5014646;28;20028;-90
2023/09/29 06:24:48;;;;;;;9.55;3.53;;;16.40;99.90;;;;;;5071264;28;20127;-90
2023/09/29 06:27:14;;;;;;;8.80;3.33;;;16.30;99.90;;;;;;5018788;28;20403;-91
2023/09/29 06:29:40;;;;;;;9.02;3.60;;;16.40;99.90;;;;;;5042915;28;20033;-93
2023/09/29 06:32:08;;;;;;;8.98;3.35;;;16.40;99.90;;;;;;5051770;28;20044;-89
2023/09/29 06:34:35;;;;;;;9.45;3.50;;;16.50;99.90;;;;;;5019765;28;20519;-93
2023/09/29 06:37:01;;;;;;;6.50;3.03;;;16.50;99.90;;;;;;5055356;28;20052;-94
2023/09/29 06:39:27;;;;;;;7.07;3.00;;;16.50;99.90;;;;;;5019913;28;20049;-92
2023/09/29 06:41:53;;;;;;;5.88;3.10;;;16.50;99.90;;;;;;5035327;28;20106;-91
2023/09/29 06:44:18;;;;;;;7.05;3.38;;;16.50;99.90;;;;;;5043860;28;20495;-93
2023/09/29 06:46:44;;;;;;;7.20;3.15;;;16.50;99.90;;;;;;5013645;28;20040;-92
2023/09/29 06:49:10;;;;;;;7.95;3.40;;;16.50;99.90;;;;;;5031610;28;20043;-90
2023/09/29 06:51:36;;;;;;;8.45;3.38;;;16.50;99.90;;;;;;5066911;28;20032;-89
2023/09/29 06:54:02;;;;;;;6.10;3.22;;;16.60;99.90;;;;;;5042607;28;20044;-88
2023/09/29 06:56:28;;;;;;;7.90;2.92;;;16.60;99.90;;;;;;5074005;28;20052;-90
2023/09/29 06:58:54;;;;;;;7.80;3.42;;;16.60;99.90;;;;;;5069251;28;20096;-93
2023/09/29 07:01:21;;;;;;;7.60;3.90;;;16.70;99.90;;;;;;5076666;28;20040;-91
2023/09/29 07:03:47;;;;;;;6.15;3.42;;;16.70;99.90;;;;;;5033823;28;20093;-91
2023/09/29 07:06:14;;;;;;;8.68;3.58;;;16.70;99.90;;;;;;5043843;28;20040;-88
2023/09/29 07:08:40;;;;;;;10.90;3.50;;;16.80;99.90;;;;;;5074869;28;20036;-92
2023/09/29 07:11:06;;;;;;;9.27;4.10;;;16.80;99.90;;;;;;5040893;28;20140;-91
2023/09/29 07:13:32;;;;;;;6.85;3.63;;;16.90;99.90;;;;;;5043058;28;20040;-89
2023/09/29 07:15:58;;;;;;;7.97;4.07;;;17.00;99.90;;;;;;5039084;28;20040;-91
2023/09/29 07:18:24;;;;;;;9.15;3.88;;;17.10;99.90;;;;;;5051806;28;20040;-93
2023/09/29 07:20:52;;;;;;;7.25;3.58;;;17.20;99.90;;;;;;5042419;28;20040;-89
2023/09/29 07:23:21;;;;;;;8.38;4.07;;;17.40;99.90;;;;;;5065799;28;20047;-91
2023/09/29 07:25:48;;;;;;;8.95;3.75;;;17.50;99.90;;;;;;5061046;28;21437;-91
2023/09/29 07:28:16;;;;;;;7.72;3.80;;;17.70;99.90;;;;;;5047466;28;20106;-90
2023/09/29 07:30:42;;;;;;;5.78;3.35;;;17.90;99.90;;;;;;5074013;28;20035;-90
2023/09/29 07:33:09;;;;;;;9.20;3.50;;;18.00;99.90;;;;;;5040794;28;20064;-90
2023/09/29 07:35:36;;;;;;;8.38;3.05;;;18.10;99.90;;;;;;5080021;28;20052;-92
2023/09/29 07:38:02;;;;;;;5.47;3.05;;;18.10;99.90;;;;;;5040991;28;20044;-93
2023/09/29 07:40:27;;;;;;;5.10;3.05;;;18.10;99.90;;;;;;5055406;28;20102;-91
2023/09/29 07:42:54;;;;;;;7.20;2.88;;;18.10;99.90;;;;;;5050898;28;20044;-90
2023/09/29 07:45:20;;;;;;;7.72;3.40;;;18.10;99.90;;;;;;5040953;28;20039;-93
2023/09/29 07:47:46;;;;;;;6.57;3.50;;;18.10;99.90;;;;;;5083660;28;20033;-89
2023/09/29 07:50:13;;;;;;;6.20;3.10;;;18.20;99.90;;;;;;5065426;28;20036;-91
2023/09/29 07:52:39;;;;;;;6.77;3.23;;;18.30;99.90;;;;;;5091890;28;20036;-90
2023/09/29 07:55:09;;;;;;;7.25;2.83;;;18.40;99.90;;;;;;5050869;28;20398;-91
2023/09/29 07:57:35;;;;;;;5.57;2.83;;;18.50;99.90;;;;;;5043487;28;20040;-91
2023/09/29 08:00:04;;;;;;;5.35;2.85;;;18.50;99.90;;;;;;5052402;28;20052;-86
2023/09/29 08:02:31;;;;;;;5.30;2.78;;;18.60;99.90;;;;;;5058914;28;20039;-89
2023/09/29 08:04:57;;;;;;;5.90;2.75;;;18.70;99.90;;;;;;5035892;28;20059;-93
2023/09/29 08:07:25;;;;;;;6.00;3.00;;;18.80;99.90;;;;;;5073623;28;20047;-94
2023/09/29 08:09:53;;;;;;;5.47;2.60;;;19.10;99.90;;;;;;5058439;28;20056;-91
2023/09/29 08:12:19;;;;;;;8.27;3.03;;;;;;;;;;5058900;28;20044;-87
2023/09/29 08:14:46;;;;;;;5.27;2.90;;;19.80;99.90;;;;;;5053620;28;20479;-91
2023/09/29 08:17:11;;;;;;;5.22;2.55;;;19.90;99.90;;;;;;5056062;28;21090;-95
2023/09/29 08:19:37;;;;;;;4.32;2.50;;;20.40;99.90;;;;;;5058185;28;20067;-91
2023/09/29 08:22:03;;;;;;;5.40;2.75;;;20.40;99.90;;;;;;5030155;28;20036;-90
2023/09/29 08:24:32;;;;;;;5.10;2.55;;;20.50;99.90;;;;;;5044413;28;20028;-95
2023/09/29 08:27:00;;;;;;;5.05;2.30;;;20.30;99.90;;;;;;5061630;28;20125;-91
2023/09/29 08:29:26;;;;;;;6.85;2.42;;;20.30;99.90;;;;;;5057173;28;20192;-89
2023/09/29 08:31:53;;;;;;;6.38;2.08;;;20.40;99.90;;;;;;5070875;28;20040;-92
2023/09/29 08:34:19;;;;;;;5.57;2.10;;;20.40;99.90;;;;;;5035176;28;20107;-88
2023/09/29 08:36:45;;;;;;;4.75;2.38;;;20.50;99.90;;;;;;5074940;28;20483;-93
2023/09/29 08:39:11;;;;;;;6.97;2.17;;;20.60;99.90;;;;;;5042147;28;20048;-90
2023/09/29 08:41:47;;;;;;;6.03;2.05;;;20.60;99.90;;;;;;5071448;28;20044;-90
2023/09/29 08:44:18;;;;;;;4.53;1.95;;;20.60;99.90;;;;;;5094899;28;20386;-92
2023/09/29 08:46:47;;;;;;;4.93;1.95;;;20.70;99.90;;;;;;5061759;28;20063;-90
2023/09/29 08:49:16;;;;;;;2.72;1.73;;;20.70;99.90;;;;;;5065625;28;20038;-94
2023/09/29 08:51:46;;;;;;;3.33;1.90;;;20.70;99.90;;;;;;5047674;28;20047;-92
2023/09/29 08:54:17;;;;;;;5.80;2.10;;;20.70;99.90;;;;;;5059949;28;20040;-95
2023/09/29 08:56:44;;;;;;;3.55;1.67;;;20.80;99.90;;;;;;5047804;28;20135;-94
2023/09/29 08:59:10;;;;;;;5.30;2.45;;;20.90;99.90;;;;;;5062564;28;20039;-90
2023/09/29 09:01:36;;;;;;;4.30;2.20;;;21.00;99.90;;;;;;5028305;28;20123;-90
2023/09/29 09:04:01;;;;;;;4.18;1.70;;;21.00;99.90;;;;;;5028868;28;20460;-95
2023/09/29 09:06:28;;;;;;;7.15;1.83;;;21.00;99.90;;;;;;5069792;28;20032;-90
2023/09/29 09:08:56;;;;;;;5.60;1.80;;;21.00;99.90;;;;;;5080369;28;20039;-94
2023/09/29 09:11:27;;;;;;;6.05;1.98;;;20.90;99.90;;;;;;5108112;28;20040;-93
2023/09/29 09:14:03;;;;;;;4.38;1.70;;;20.90;99.90;;;;;;5087709;28;20482;-92
2023/09/29 09:16:31;;;;;;;3.55;1.95;;;21.00;99.90;;;;;;5049767;28;20032;-93
2023/09/29 09:19:11;;;;;;;5.57;1.83;;;21.00;99.90;;;;;;5052614;28;20131;-89
2023/09/29 09:21:37;;;;;;;5.40;1.92;;;21.00;99.90;;;;;;5083824;28;20466;-93
2023/09/29 09:24:05;;;;;;;5.00;1.67;;;20.80;99.90;;;;;;5078035;28;20044;-94
2023/09/29 09:26:31;;;;;;;;;;;20.80;99.90;;;;;;5061886;28;20044;-95
2023/09/29 09:29:08;;;;;;;4.55;1.73;;;20.70;99.90;;;;;;5061502;28;20363;-94
2023/09/29 09:31:45;;;;;;;3.05;1.33;;;20.70;99.90;;;;;;5045751;28;20032;-96
2023/09/29 09:34:12;;;;;;;4.35;1.88;;;20.80;99.90;;;;;;5057341;28;20040;-93
2023/09/29 09:36:50;;;;;;;3.50;1.40;;;20.90;99.90;;;;;;5069242;28;20036;-95
2023/09/29 09:39:17;;;;;;;;;;;21.10;99.90;;;;;;5051862;28;20041;-94
2023/09/29 09:41:45;;;;;;;4.13;1.80;;;21.10;99.90;;;;;;5068112;28;19916;-96
2023/09/29 09:44:11;;;;;;;6.63;1.45;;;21.30;99.90;;;;;;5041536;28;20045;-90
2023/09/29 09:46:40;;;;;;;4.90;1.60;;;21.40;99.90;;;;;;5061148;28;20093;-92
2023/09/29 09:49:13;;;;;;;4.07;1.73;;;21.50;99.90;;;;;;5060939;28;20036;-89
2023/09/29 09:51:47;;;;;;;4.28;1.60;;;21.60;99.90;;;;;;5064569;28;20174;-93
2023/09/29 09:54:16;;;;;;;3.75;1.70;;;21.70;99.90;;;;;;5045054;28;20043;-92
2023/09/29 09:57:08;;;;;;;3.05;1.50;;;21.80;99.90;;;;;;5060656;28;20055;-93
2023/09/29 09:59:35;;;;;;;3.22;1.42;;;21.80;99.90;;;;;;5062884;28;20482;-93
2023/09/29 10:02:06;;;;;;;4.03;1.52;;;21.80;99.90;;;;;;5074053;28;20066;-94
2023/09/29 10:04:35;;;;;;;2.83;1.33;;;21.80;99.90;;;;;;5070339;28;20047;-92
2023/09/29 10:07:04;;;;;;;3.65;1.58;;;21.80;99.90;;;;;;5051774;28;20043;-91
2023/09/29 10:09:43;;;;;;;1.95;1.48;;;21.80;99.90;;;;;;5042484;28;20046;-91
2023/09/29 10:12:25;;;;;;;5.47;1.92;;;21.70;99.90;;;;;;5055607;28;20047;-94
2023/09/29 10:14:52;;;;;;;6.05;1.63;;;21.60;99.90;;;;;;5061220;28;20499;-92
2023/09/29 10:17:20;;;;;;;4.15;1.73;;;21.50;99.90;;;;;;5054433;28;20039;-91
2023/09/29 10:19:50;;;;;;;5.18;1.90;;;21.40;99.90;;;;;;5054293;28;20047;-91
2023/09/29 10:22:24;;;;;;;5.18;1.98;;;21.40;99.90;;;;;;5076638;28;20123;-94
2023/09/29 10:24:56;;;;;;;4.30;1.58;;;21.30;99.90;;;;;;5057853;28;20801;-90
2023/09/29 10:27:33;;;;;;;3.78;1.63;;;21.40;99.90;;;;;;5042715;28;20040;-92
2023/09/29 10:30:16;;;;;;;3.70;1.73;;;21.50;99.90;;;;;;5070874;28;20040;-92
2023/09/29 10:32:48;;;;;;;5.18;2.03;;;21.60;99.90;;;;;;5035420;28;20047;-91
2023/09/29 10:35:19;;;;;;;5.05;2.00;;;21.70;99.90;;;;;;5043344;28;20360;-91
2023/09/29 10:37:54;;;;;;;3.13;2.08;;;21.80;99.90;;;;;;5057811;28;20114;-92
2023/09/29 10:40:32;;;;;;;5.32;2.20;;;21.90;99.90;;;;;;5041288;28;20068;-93
2023/09/29 10:43:02;;;;;;;2.75;1.85;;;21.80;99.90;;;;;;5037521;28;20498;-96
2023/09/29 10:45:37;;;;;;;4.82;1.90;;;21.80;99.90;;;;;;5059108;28;20487;-94
2023/09/29 10:48:06;;;;;;;4.57;2.03;;;21.70;99.90;;;;;;5058594;28;20119;-92
2023/09/29 10:50:51;;;;;;;4.93;2.17;;;21.60;99.90;;;;;;5059216;28;20115;-92
2023/09/29 10:53:18;;;;;;;4.50;1.90;;;21.50;99.90;;;;;;5058400;28;20097;-92
2023/09/29 10:55:50;;;;;;;5.20;2.40;;;21.30;99.90;;;;;;5097258;28;20067;-92
2023/09/29 10:58:18;;;;;;;4.90;1.85;;;21.30;99.90;;;;;;5048087;28;20491;-93
2023/09/29 11:00:49;;;;;;;3.67;2.20;;;21.20;99.90;;;;;;5039828;28;20037;-92
2023/09/29 11:03:23;;;;;;;4.22;2.20;;;21.20;99.90;;;;;;5058857;28;20097;-93
2023/09/29 11:05:54;;;;;;;4.07;2.28;;;21.10;99.90;;;;;;5063590;28;20047;-93
2023/09/29 11:08:28;;;;;;;4.60;2.35;;;21.10;99.90;;;;;;5059066;28;20093;-93
2023/09/29 11:11:05;;;;;;;3.53;2.03;;;21.00;99.90;;;;;;5050929;28;20066;-93
2023/09/29 11:13:31;;;;;;;4.90;2.30;;;21.00;99.90;;;;;;5040231;28;20044;-93
2023/09/29 11:15:59;;;;;;;8.20;2.20;;;21.00;99.90;;;;;;5058800;28;20040;-94
2023/09/29 11:18:35;;;;;;;4.47;2.33;;;21.00;99.90;;;;;;5046913;28;20481;-94
2023/09/29 11:21:05;;;;;;;5.28;2.60;;;21.00;99.90;;;;;;5056758;28;20120;-96
2023/09/29 11:23:45;;;;;;;4.25;2.10;;;21.00;99.90;;;;;;5041411;28;20040;-91
2023/09/29 11:26:12;;;;;;;6.38;2.47;;;21.00;99.90;;;;;;5050473;28;20085;-92
2023/09/29 11:28:47;;;;;;;4.15;2.30;;;20.90;99.90;;;;;;5050691;28;20093;-92
2023/09/29 11:31:16;;;;;;;4.63;2.50;;;20.90;99.90;;;;;;5064879;28;20032;-93
2023/09/29 11:33:45;;;;;;;4.72;2.20;;;20.80;99.90;;;;;;5073281;28;20040;-91
2023/09/29 11:36:21;;;;;;;5.07;2.65;;;20.70;99.90;;;;;;5024936;28;20744;-92
2023/09/29 11:38:47;;;;;;;4.28;2.05;;;20.70;99.90;;;;;;5061399;28;20036;-91
2023/09/29 11:41:15;;;;;;;6.47;2.60;;;20.60;99.90;;;;;;5055937;28;20096;-92
2023/09/29 11:43:42;;;;;;;5.70;2.30;;;20.60;99.90;;;;;;5053916;28;20044;-90
2023/09/29 11:46:08;;;;;;;;;;;20.80;99.90;;;;;;5069656;28;20032;-91
2023/09/29 11:48:35;;;;;;;5.28;2.63;;;20.50;99.90;;;;;;5073775;28;19948;-90
2023/09/29 11:51:01;;;;;;;4.50;2.20;;;20.40;99.90;;;;;;5042444;28;20647;-89
2023/09/29 11:53:27;;;;;;;7.13;2.60;;;20.40;99.90;;;;;;5039818;28;20051;-89
2023/09/29 11:55:54;;;;;;;8.55;3.35;;;20.40;99.90;;;;;;5051271;28;20486;-89
2023/09/29 11:58:20;;;;;;;8.48;3.08;;;20.30;99.90;;;;;;5073328;28;20127;-89
2023/09/29 12:00:47;;;;;;;6.23;3.10;;;20.20;99.90;;;;;;5057777;28;20036;-90
2023/09/29 12:03:13;;;;;;;6.20;3.38;;;20.10;99.90;;;;;;5081635;28;20522;-91
2023/09/29 12:05:42;;;;;;;6.97;3.47;;;20.10;99.90;;;;;;5046716;28;20035;-90
2023/09/29 12:08:07;;;;;;;6.40;3.42;;;20.00;99.90;;;;;;5069005;28;20033;-88
2023/09/29 12:10:33;;;;;;;6.53;3.70;;;20.00;99.90;;;;;;5051009;28;20036;-89
2023/09/29 12:12:59;;;;;;;5.72;3.22;;;20.00;99.90;;;;;;5050919;28;20094;-88
2023/09/29 12:15:25;;;;;;;4.97;3.45;;;20.00;99.90;;;;;;5051864;28;20040;-89
2023/09/29 12:17:51;;;;;;;9.90;4.20;;;20.00;99.90;;;;;;5049945;28;20041;-90
2023/09/29 12:20:18;;;;;;;9.75;3.75;;;20.00;99.90;;;;;;5074285;28;20032;-89
2023/09/29 12:22:45;;;;;;;6.35;3.30;;;20.10;99.90;;;;;;5087701;28;20028;-86
2023/09/29 12:25:14;;;;;;;3.80;0.60;;;20.00;99.90;;;;;;5056938;28;20042;-91
2023/09/29 12:27:44;;;;;;;3.75;0.60;;;19.50;99.90;;;;;;5073599;28;20086;-94
2023/09/29 12:30:14;;;;;;;2.90;0.38;;;19.10;99.90;;;;;;5083765;28;20040;-90
2023/09/29 12:32:40;;;;;;;1.50;0.40;;;18.70;99.90;;;;;;5074556;28;20047;-87
2023/09/29 12:35:08;;;;;;;3.22;0.70;;;18.40;99.90;;;;;;5063986;28;20588;-87
2023/09/29 12:37:33;;;;;;;1.75;0.50;;;18.30;99.90;;;;;;5047871;28;20036;-89
2023/09/29 12:39:59;;;;;;;2.78;0.65;;;18.10;99.90;;;;;;5071648;28;20100;-94
2023/09/29 12:42:28;;;;;;;2.13;0.50;;;18.00;99.90;;;;;;5054119;28;20036;-88
2023/09/29 12:44:53;;;;;;;2.67;0.50;;;18.00;99.90;;;;;;5075387;28;20070;-89
2023/09/29 12:47:19;;;;;;;1.52;0.50;;;17.90;99.90;;;;;;5057318;28;20040;-88
2023/09/29 12:49:45;;;;;;;2.88;0.70;;;17.70;99.90;;;;;;5054360;28;20032;-93
2023/09/29 12:52:13;;;;;;;2.33;0.60;;;17.70;99.90;;;;;;5055521;28;20110;-91